sensor_id;sensor_type;location;lat;lon;timestamp;P1;durP1;ratioP1;P2;durP2;ratioP2
14778;SDS011;7481;53.750;10.570;2023-04-01T00:01:12;11.30;;;8.20;;
14778;SDS011;7481;53.750;10.570;2023-04-01T00:04:00;9.17;;;7.53;;
14778;SDS011;7481;53.750;10.570;2023-04-01T00:06:48;12.60;;;8.10;;
14778;SDS011;7481;53.750;10.570;2023-04-01T00:09:36;13.93;;;8.57;;
14778;SDS011;7481;53.750;10.570;2023-04-01T00:12:24;12.83;;;8.93;;
14778;SDS011;7481;53.750;10.570;2023-04-01T00:15:11;12.43;;;9.20;;
14778;SDS011;7481;53.750;10.570;2023-04-01T00:17:59;14.20;;;9.30;;
14778;SDS011;7481;53.750;10.570;2023-04-01T00:20:47;13.77;;;9.27;;
14778;SDS011;7481;53.750;10.570;2023-04-01T00:23:36;18.23;;;9.93;;
14778;SDS011;7481;53.750;10.570;2023-04-01T00:26:23;13.80;;;9.50;;
14778;SDS011;7481;53.750;10.570;2023-04-01T00:29:11;13.80;;;9.60;;
14778;SDS011;7481;53.750;10.570;2023-04-01T00:31:59;12.53;;;9.73;;
14778;SDS011;7481;53.750;10.570;2023-04-01T00:34:49;15.27;;;10.03;;
14778;SDS011;7481;53.750;10.570;2023-04-01T00:37:38;16.17;;;10.43;;
14778;SDS011;7481;53.750;10.570;2023-04-01T00:40:33;13.40;;;10.03;;
14778;SDS011;7481;53.750;10.570;2023-04-01T00:43:20;15.17;;;10.63;;
14778;SDS011;7481;53.750;10.570;2023-04-01T00:46:08;17.80;;;10.90;;
14778;SDS011;7481;53.750;10.570;2023-04-01T00:48:55;18.57;;;11.90;;
14778;SDS011;7481;53.750;10.570;2023-04-01T00:51:44;18.73;;;11.10;;
14778;SDS011;7481;53.750;10.570;2023-04-01T00:54:32;18.03;;;11.43;;
14778;SDS011;7481;53.750;10.570;2023-04-01T00:57:25;16.73;;;11.73;;
14778;SDS011;7481;53.750;10.570;2023-04-01T01:00:15;18.50;;;11.43;;
14778;SDS011;7481;53.750;10.570;2023-04-01T01:03:03;18.77;;;12.33;;
14778;SDS011;7481;53.750;10.570;2023-04-01T01:17:54;18.43;;;12.33;;
14778;SDS011;7481;53.750;10.570;2023-04-01T01:27:00;16.73;;;12.30;;
14778;SDS011;7481;53.750;10.570;2023-04-01T01:38:22;15.40;;;11.90;;
14778;SDS011;7481;53.750;10.570;2023-04-01T01:41:10;20.83;;;12.13;;
14778;SDS011;7481;53.750;10.570;2023-04-01T01:43:58;18.10;;;12.50;;
14778;SDS011;7481;53.750;10.570;2023-04-01T01:46:47;17.30;;;12.00;;
14778;SDS011;7481;53.750;10.570;2023-04-01T01:49:35;17.57;;;12.77;;
14778;SDS011;7481;53.750;10.570;2023-04-01T01:52:23;17.57;;;12.73;;
14778;SDS011;7481;53.750;10.570;2023-04-01T01:58:29;17.80;;;12.40;;
14778;SDS011;7481;53.750;10.570;2023-04-01T02:01:18;20.80;;;11.60;;
14778;SDS011;7481;53.750;10.570;2023-04-01T02:04:07;17.53;;;12.10;;
14778;SDS011;7481;53.750;10.570;2023-04-01T02:06:56;17.33;;;12.13;;
14778;SDS011;7481;53.750;10.570;2023-04-01T02:09:46;14.93;;;11.13;;
14778;SDS011;7481;53.750;10.570;2023-04-01T02:12:34;16.63;;;11.97;;
14778;SDS011;7481;53.750;10.570;2023-04-01T02:15:22;15.37;;;11.60;;
14778;SDS011;7481;53.750;10.570;2023-04-01T02:18:11;19.73;;;12.40;;
14778;SDS011;7481;53.750;10.570;2023-04-01T02:20:59;19.07;;;11.57;;
14778;SDS011;7481;53.750;10.570;2023-04-01T02:23:47;16.93;;;10.80;;
14778;SDS011;7481;53.750;10.570;2023-04-01T02:26:35;15.90;;;12.10;;
14778;SDS011;7481;53.750;10.570;2023-04-01T02:29:23;15.90;;;11.13;;
14778;SDS011;7481;53.750;10.570;2023-04-01T02:32:12;17.90;;;11.67;;
14778;SDS011;7481;53.750;10.570;2023-04-01T02:35:00;16.70;;;11.37;;
14778;SDS011;7481;53.750;10.570;2023-04-01T02:37:52;15.40;;;10.77;;
14778;SDS011;7481;53.750;10.570;2023-04-01T02:40:50;17.13;;;12.13;;
14778;SDS011;7481;53.750;10.570;2023-04-01T02:43:38;17.57;;;12.03;;
14778;SDS011;7481;53.750;10.570;2023-04-01T02:46:25;20.43;;;13.30;;
14778;SDS011;7481;53.750;10.570;2023-04-01T02:49:13;20.80;;;13.47;;
14778;SDS011;7481;53.750;10.570;2023-04-01T02:52:01;19.53;;;13.43;;
14778;SDS011;7481;53.750;10.570;2023-04-01T02:54:48;21.00;;;13.33;;
14778;SDS011;7481;53.750;10.570;2023-04-01T02:57:35;19.83;;;13.50;;
14778;SDS011;7481;53.750;10.570;2023-04-01T03:00:23;22.30;;;14.50;;
14778;SDS011;7481;53.750;10.570;2023-04-01T03:03:11;23.00;;;14.97;;
14778;SDS011;7481;53.750;10.570;2023-04-01T03:06:07;20.33;;;14.37;;
14778;SDS011;7481;53.750;10.570;2023-04-01T03:08:55;24.23;;;14.43;;
14778;SDS011;7481;53.750;10.570;2023-04-01T03:11:42;22.60;;;14.40;;
14778;SDS011;7481;53.750;10.570;2023-04-01T03:14:30;24.53;;;14.93;;
14778;SDS011;7481;53.750;10.570;2023-04-01T03:17:17;18.43;;;11.43;;
14778;SDS011;7481;53.750;10.570;2023-04-01T03:20:05;11.40;;;6.77;;
14778;SDS011;7481;53.750;10.570;2023-04-01T03:22:54;8.73;;;5.80;;
14778;SDS011;7481;53.750;10.570;2023-04-01T03:25:42;7.53;;;5.20;;
14778;SDS011;7481;53.750;10.570;2023-04-01T03:28:29;6.87;;;4.57;;
14778;SDS011;7481;53.750;10.570;2023-04-01T03:31:17;7.43;;;4.20;;
14778;SDS011;7481;53.750;10.570;2023-04-01T03:34:06;7.53;;;4.10;;
14778;SDS011;7481;53.750;10.570;2023-04-01T03:36:53;6.10;;;4.53;;
14778;SDS011;7481;53.750;10.570;2023-04-01T03:39:41;5.60;;;4.30;;
14778;SDS011;7481;53.750;10.570;2023-04-01T03:42:30;7.87;;;5.50;;
14778;SDS011;7481;53.750;10.570;2023-04-01T03:45:18;9.40;;;6.07;;
14778;SDS011;7481;53.750;10.570;2023-04-01T03:48:06;10.93;;;6.23;;
14778;SDS011;7481;53.750;10.570;2023-04-01T03:50:53;6.93;;;5.63;;
14778;SDS011;7481;53.750;10.570;2023-04-01T03:53:41;7.83;;;5.47;;
14778;SDS011;7481;53.750;10.570;2023-04-01T03:56:28;8.40;;;5.60;;
14778;SDS011;7481;53.750;10.570;2023-04-01T03:59:16;7.03;;;5.40;;
14778;SDS011;7481;53.750;10.570;2023-04-01T04:02:03;7.13;;;4.73;;
14778;SDS011;7481;53.750;10.570;2023-04-01T04:04:51;6.63;;;4.67;;
14778;SDS011;7481;53.750;10.570;2023-04-01T04:07:38;5.80;;;4.67;;
14778;SDS011;7481;53.750;10.570;2023-04-01T04:10:26;5.13;;;4.07;;
14778;SDS011;7481;53.750;10.570;2023-04-01T04:13:15;5.33;;;3.93;;
14778;SDS011;7481;53.750;10.570;2023-04-01T04:16:03;5.67;;;4.30;;
14778;SDS011;7481;53.750;10.570;2023-04-01T04:18:50;6.43;;;4.23;;
14778;SDS011;7481;53.750;10.570;2023-04-01T04:21:39;4.53;;;3.80;;
14778;SDS011;7481;53.750;10.570;2023-04-01T04:24:26;5.63;;;3.50;;
14778;SDS011;7481;53.750;10.570;2023-04-01T04:27:14;4.70;;;3.80;;
14778;SDS011;7481;53.750;10.570;2023-04-01T04:30:01;6.63;;;3.80;;
14778;SDS011;7481;53.750;10.570;2023-04-01T04:32:49;5.37;;;4.27;;
14778;SDS011;7481;53.750;10.570;2023-04-01T04:35:36;5.17;;;4.10;;
14778;SDS011;7481;53.750;10.570;2023-04-01T04:38:24;4.33;;;3.73;;
14778;SDS011;7481;53.750;10.570;2023-04-01T04:41:12;4.40;;;3.47;;
14778;SDS011;7481;53.750;10.570;2023-04-01T04:44:00;4.30;;;3.40;;
14778;SDS011;7481;53.750;10.570;2023-04-01T04:46:47;3.87;;;3.20;;
14778;SDS011;7481;53.750;10.570;2023-04-01T04:49:34;4.27;;;3.00;;
14778;SDS011;7481;53.750;10.570;2023-04-01T04:52:22;3.10;;;2.77;;
14778;SDS011;7481;53.750;10.570;2023-04-01T04:55:09;3.70;;;2.80;;
14778;SDS011;7481;53.750;10.570;2023-04-01T04:57:57;6.67;;;3.10;;
14778;SDS011;7481;53.750;10.570;2023-04-01T05:00:44;3.10;;;2.80;;
14778;SDS011;7481;53.750;10.570;2023-04-01T05:03:32;3.20;;;2.73;;
14778;SDS011;7481;53.750;10.570;2023-04-01T05:06:20;3.73;;;2.90;;
14778;SDS011;7481;53.750;10.570;2023-04-01T05:09:09;4.07;;;2.60;;
14778;SDS011;7481;53.750;10.570;2023-04-01T05:11:56;4.13;;;2.57;;
14778;SDS011;7481;53.750;10.570;2023-04-01T05:14:44;3.57;;;2.90;;
14778;SDS011;7481;53.750;10.570;2023-04-01T05:17:31;3.87;;;2.67;;
14778;SDS011;7481;53.750;10.570;2023-04-01T05:20:18;3.77;;;3.00;;
14778;SDS011;7481;53.750;10.570;2023-04-01T05:23:06;5.30;;;3.30;;
14778;SDS011;7481;53.750;10.570;2023-04-01T05:25:53;4.17;;;3.10;;
14778;SDS011;7481;53.750;10.570;2023-04-01T05:28:43;4.00;;;2.93;;
14778;SDS011;7481;53.750;10.570;2023-04-01T05:31:30;4.77;;;3.17;;
14778;SDS011;7481;53.750;10.570;2023-04-01T05:34:18;3.20;;;2.70;;
14778;SDS011;7481;53.750;10.570;2023-04-01T05:37:05;3.70;;;2.60;;
14778;SDS011;7481;53.750;10.570;2023-04-01T05:39:53;3.10;;;2.63;;
14778;SDS011;7481;53.750;10.570;2023-04-01T05:42:41;3.43;;;2.60;;
14778;SDS011;7481;53.750;10.570;2023-04-01T05:45:29;3.87;;;2.67;;
14778;SDS011;7481;53.750;10.570;2023-04-01T05:48:17;3.83;;;2.73;;
14778;SDS011;7481;53.750;10.570;2023-04-01T05:51:05;2.80;;;2.50;;
14778;SDS011;7481;53.750;10.570;2023-04-01T05:53:52;3.30;;;2.87;;
14778;SDS011;7481;53.750;10.570;2023-04-01T05:56:40;3.60;;;2.73;;
14778;SDS011;7481;53.750;10.570;2023-04-01T05:59:27;3.17;;;2.60;;
14778;SDS011;7481;53.750;10.570;2023-04-01T06:02:16;3.00;;;2.50;;
14778;SDS011;7481;53.750;10.570;2023-04-01T06:05:21;3.80;;;2.73;;
14778;SDS011;7481;53.750;10.570;2023-04-01T06:08:10;3.20;;;2.90;;
14778;SDS011;7481;53.750;10.570;2023-04-01T06:16:39;4.80;;;2.50;;
14778;SDS011;7481;53.750;10.570;2023-04-01T06:25:35;3.47;;;3.00;;
14778;SDS011;7481;53.750;10.570;2023-04-01T06:37:40;5.30;;;2.80;;
14778;SDS011;7481;53.750;10.570;2023-04-01T06:40:40;5.00;;;2.57;;
14778;SDS011;7481;53.750;10.570;2023-04-01T06:43:51;3.13;;;2.57;;
14778;SDS011;7481;53.750;10.570;2023-04-01T06:52:41;2.90;;;2.17;;
14778;SDS011;7481;53.750;10.570;2023-04-01T06:55:47;4.00;;;2.70;;
14778;SDS011;7481;53.750;10.570;2023-04-01T06:58:42;4.17;;;2.53;;
14778;SDS011;7481;53.750;10.570;2023-04-01T07:04:33;3.27;;;2.30;;
14778;SDS011;7481;53.750;10.570;2023-04-01T07:10:32;2.80;;;2.30;;
14778;SDS011;7481;53.750;10.570;2023-04-01T07:13:30;2.53;;;2.10;;
14778;SDS011;7481;53.750;10.570;2023-04-01T07:16:21;2.83;;;2.37;;
14778;SDS011;7481;53.750;10.570;2023-04-01T07:25:11;3.80;;;2.43;;
14778;SDS011;7481;53.750;10.570;2023-04-01T07:28:02;2.90;;;2.17;;
14778;SDS011;7481;53.750;10.570;2023-04-01T07:31:54;3.50;;;2.23;;
14778;SDS011;7481;53.750;10.570;2023-04-01T07:39:51;3.40;;;1.90;;
14778;SDS011;7481;53.750;10.570;2023-04-01T07:42:46;2.13;;;1.80;;
14778;SDS011;7481;53.750;10.570;2023-04-01T07:45:36;4.37;;;2.37;;
14778;SDS011;7481;53.750;10.570;2023-04-01T07:51:40;2.43;;;2.13;;
14778;SDS011;7481;53.750;10.570;2023-04-01T08:01:27;2.50;;;1.73;;
14778;SDS011;7481;53.750;10.570;2023-04-01T08:03:47;2.83;;;1.70;;
14778;SDS011;7481;53.750;10.570;2023-04-01T08:06:53;2.63;;;2.23;;
14778;SDS011;7481;53.750;10.570;2023-04-01T08:13:12;2.77;;;1.87;;
14778;SDS011;7481;53.750;10.570;2023-04-01T08:16:05;2.47;;;2.00;;
14778;SDS011;7481;53.750;10.570;2023-04-01T08:19:06;4.30;;;2.20;;
14778;SDS011;7481;53.750;10.570;2023-04-01T08:21:56;4.10;;;1.90;;
14778;SDS011;7481;53.750;10.570;2023-04-01T08:24:44;1.97;;;1.77;;
14778;SDS011;7481;53.750;10.570;2023-04-01T08:27:35;3.70;;;1.70;;
14778;SDS011;7481;53.750;10.570;2023-04-01T08:30:25;2.50;;;1.80;;
14778;SDS011;7481;53.750;10.570;2023-04-01T08:36:15;4.33;;;1.77;;
14778;SDS011;7481;53.750;10.570;2023-04-01T08:39:04;3.83;;;2.73;;
14778;SDS011;7481;53.750;10.570;2023-04-01T08:42:11;3.27;;;1.90;;
14778;SDS011;7481;53.750;10.570;2023-04-01T08:51:16;2.53;;;1.60;;
14778;SDS011;7481;53.750;10.570;2023-04-01T08:57:34;1.60;;;1.40;;
14778;SDS011;7481;53.750;10.570;2023-04-01T09:00:33;1.53;;;1.40;;
14778;SDS011;7481;53.750;10.570;2023-04-01T09:06:37;2.90;;;1.70;;
14778;SDS011;7481;53.750;10.570;2023-04-01T09:15:34;1.47;;;1.37;;
14778;SDS011;7481;53.750;10.570;2023-04-01T09:21:34;1.30;;;1.07;;
14778;SDS011;7481;53.750;10.570;2023-04-01T09:27:32;1.60;;;0.90;;
14778;SDS011;7481;53.750;10.570;2023-04-01T09:33:12;1.17;;;1.00;;
14778;SDS011;7481;53.750;10.570;2023-04-01T09:44:57;2.17;;;1.30;;
14778;SDS011;7481;53.750;10.570;2023-04-01T09:54:00;2.33;;;1.33;;
14778;SDS011;7481;53.750;10.570;2023-04-01T10:15:17;2.27;;;1.50;;
14778;SDS011;7481;53.750;10.570;2023-04-01T10:30:14;2.63;;;1.97;;
14778;SDS011;7481;53.750;10.570;2023-04-01T10:33:13;3.57;;;2.13;;
14778;SDS011;7481;53.750;10.570;2023-04-01T10:51:12;6.23;;;3.87;;
14778;SDS011;7481;53.750;10.570;2023-04-01T10:57:02;6.33;;;4.47;;
14778;SDS011;7481;53.750;10.570;2023-04-01T11:14:40;5.47;;;3.83;;
14778;SDS011;7481;53.750;10.570;2023-04-01T11:17:53;5.37;;;3.90;;
14778;SDS011;7481;53.750;10.570;2023-04-01T11:20:52;6.30;;;4.33;;
14778;SDS011;7481;53.750;10.570;2023-04-01T11:23:46;7.43;;;4.03;;
14778;SDS011;7481;53.750;10.570;2023-04-01T11:29:53;5.47;;;4.20;;
14778;SDS011;7481;53.750;10.570;2023-04-01T11:32:50;5.83;;;3.50;;
14778;SDS011;7481;53.750;10.570;2023-04-01T11:41:40;8.00;;;4.00;;
14778;SDS011;7481;53.750;10.570;2023-04-01T11:44:30;4.53;;;3.77;;
14778;SDS011;7481;53.750;10.570;2023-04-01T11:50:15;5.53;;;4.60;;
14778;SDS011;7481;53.750;10.570;2023-04-01T12:40:24;8.87;;;5.80;;
14778;SDS011;7481;53.750;10.570;2023-04-01T12:46:35;7.40;;;5.47;;
14778;SDS011;7481;53.750;10.570;2023-04-01T12:50:06;8.20;;;5.00;;
14778;SDS011;7481;53.750;10.570;2023-04-01T12:52:52;9.50;;;5.43;;
14778;SDS011;7481;53.750;10.570;2023-04-01T12:55:43;10.23;;;5.70;;
14778;SDS011;7481;53.750;10.570;2023-04-01T12:58:40;10.20;;;5.60;;
14778;SDS011;7481;53.750;10.570;2023-04-01T13:01:40;9.83;;;5.33;;
14778;SDS011;7481;53.750;10.570;2023-04-01T13:10:35;11.50;;;5.37;;
14778;SDS011;7481;53.750;10.570;2023-04-01T13:19:44;9.07;;;5.87;;
14778;SDS011;7481;53.750;10.570;2023-04-01T13:25:58;8.80;;;4.97;;
14778;SDS011;7481;53.750;10.570;2023-04-01T13:32:00;7.80;;;5.20;;
14778;SDS011;7481;53.750;10.570;2023-04-01T13:37:54;7.00;;;5.27;;
14778;SDS011;7481;53.750;10.570;2023-04-01T13:43:50;8.93;;;5.10;;
14778;SDS011;7481;53.750;10.570;2023-04-01T13:52:36;10.63;;;5.30;;
14778;SDS011;7481;53.750;10.570;2023-04-01T14:01:31;8.47;;;5.00;;
14778;SDS011;7481;53.750;10.570;2023-04-01T14:07:45;9.07;;;5.13;;
14778;SDS011;7481;53.750;10.570;2023-04-01T14:10:43;12.83;;;4.97;;
14778;SDS011;7481;53.750;10.570;2023-04-01T14:16:50;8.47;;;5.17;;
14778;SDS011;7481;53.750;10.570;2023-04-01T14:22:38;7.93;;;4.87;;
14778;SDS011;7481;53.750;10.570;2023-04-01T14:48:51;10.17;;;4.70;;
14778;SDS011;7481;53.750;10.570;2023-04-01T14:51:39;11.03;;;5.47;;
14778;SDS011;7481;53.750;10.570;2023-04-01T14:54:31;7.57;;;4.93;;
14778;SDS011;7481;53.750;10.570;2023-04-01T14:57:27;10.00;;;5.33;;
14778;SDS011;7481;53.750;10.570;2023-04-01T15:00:17;10.23;;;4.97;;
14778;SDS011;7481;53.750;10.570;2023-04-01T15:03:19;12.40;;;6.53;;
14778;SDS011;7481;53.750;10.570;2023-04-01T15:09:17;8.13;;;5.20;;
14778;SDS011;7481;53.750;10.570;2023-04-01T15:12:17;11.77;;;5.53;;
14778;SDS011;7481;53.750;10.570;2023-04-01T15:30:18;10.47;;;5.87;;
14778;SDS011;7481;53.750;10.570;2023-04-01T15:38:52;9.03;;;4.67;;
14778;SDS011;7481;53.750;10.570;2023-04-01T15:50:44;9.27;;;5.53;;
14778;SDS011;7481;53.750;10.570;2023-04-01T16:02:34;7.43;;;4.10;;
14778;SDS011;7481;53.750;10.570;2023-04-01T16:05:28;7.33;;;4.80;;
14778;SDS011;7481;53.750;10.570;2023-04-01T16:14:33;6.73;;;4.00;;
14778;SDS011;7481;53.750;10.570;2023-04-01T16:26:07;8.07;;;3.90;;
14778;SDS011;7481;53.750;10.570;2023-04-01T16:29:03;6.30;;;4.10;;
14778;SDS011;7481;53.750;10.570;2023-04-01T16:31:54;8.63;;;4.10;;
14778;SDS011;7481;53.750;10.570;2023-04-01T16:37:44;6.27;;;3.57;;
14778;SDS011;7481;53.750;10.570;2023-04-01T16:40:44;6.77;;;4.13;;
14778;SDS011;7481;53.750;10.570;2023-04-01T16:49:35;7.10;;;3.47;;
14778;SDS011;7481;53.750;10.570;2023-04-01T16:52:34;7.23;;;4.00;;
14778;SDS011;7481;53.750;10.570;2023-04-01T16:55:36;6.43;;;3.30;;
14778;SDS011;7481;53.750;10.570;2023-04-01T16:58:35;11.20;;;4.50;;
14778;SDS011;7481;53.750;10.570;2023-04-01T17:01:25;6.70;;;3.40;;
14778;SDS011;7481;53.750;10.570;2023-04-01T17:04:37;4.63;;;3.27;;
14778;SDS011;7481;53.750;10.570;2023-04-01T17:10:41;5.20;;;3.13;;
14778;SDS011;7481;53.750;10.570;2023-04-01T17:13:34;6.27;;;3.20;;
14778;SDS011;7481;53.750;10.570;2023-04-01T17:19:24;5.97;;;2.80;;
14778;SDS011;7481;53.750;10.570;2023-04-01T17:22:19;5.43;;;3.30;;
14778;SDS011;7481;53.750;10.570;2023-04-01T17:25:12;7.67;;;3.53;;
14778;SDS011;7481;53.750;10.570;2023-04-01T17:28:14;8.07;;;3.40;;
14778;SDS011;7481;53.750;10.570;2023-04-01T17:36:52;6.00;;;3.00;;
14778;SDS011;7481;53.750;10.570;2023-04-01T17:45:22;4.47;;;2.80;;
14778;SDS011;7481;53.750;10.570;2023-04-01T17:56:45;5.93;;;3.30;;
14778;SDS011;7481;53.750;10.570;2023-04-01T17:59:36;4.33;;;3.50;;
14778;SDS011;7481;53.750;10.570;2023-04-01T18:08:40;5.70;;;3.83;;
14778;SDS011;7481;53.750;10.570;2023-04-01T18:11:37;5.07;;;3.37;;
14778;SDS011;7481;53.750;10.570;2023-04-01T18:23:19;4.70;;;3.30;;
14778;SDS011;7481;53.750;10.570;2023-04-01T18:26:13;4.83;;;3.13;;
14778;SDS011;7481;53.750;10.570;2023-04-01T18:38:12;7.20;;;3.20;;
14778;SDS011;7481;53.750;10.570;2023-04-01T18:41:12;4.67;;;3.10;;
14778;SDS011;7481;53.750;10.570;2023-04-01T18:46:52;6.67;;;3.27;;
14778;SDS011;7481;53.750;10.570;2023-04-01T18:49:59;6.37;;;3.10;;
14778;SDS011;7481;53.750;10.570;2023-04-01T18:52:49;4.23;;;2.80;;
14778;SDS011;7481;53.750;10.570;2023-04-01T18:55:39;5.83;;;2.73;;
14778;SDS011;7481;53.750;10.570;2023-04-01T19:01:28;4.37;;;2.70;;
14778;SDS011;7481;53.750;10.570;2023-04-01T19:18:57;3.70;;;3.23;;
14778;SDS011;7481;53.750;10.570;2023-04-01T19:21:57;5.50;;;2.90;;
14778;SDS011;7481;53.750;10.570;2023-04-01T19:27:46;5.27;;;2.70;;
14778;SDS011;7481;53.750;10.570;2023-04-01T19:33:29;5.07;;;3.07;;
14778;SDS011;7481;53.750;10.570;2023-04-01T19:36:31;7.47;;;2.87;;
14778;SDS011;7481;53.750;10.570;2023-04-01T19:39:31;3.47;;;2.40;;
14778;SDS011;7481;53.750;10.570;2023-04-01T19:42:32;5.43;;;2.63;;
14778;SDS011;7481;53.750;10.570;2023-04-01T19:51:35;6.87;;;2.73;;
14778;SDS011;7481;53.750;10.570;2023-04-01T19:54:26;4.03;;;2.50;;
14778;SDS011;7481;53.750;10.570;2023-04-01T20:00:27;5.00;;;3.00;;
14778;SDS011;7481;53.750;10.570;2023-04-01T20:12:21;6.37;;;3.37;;
14778;SDS011;7481;53.750;10.570;2023-04-01T20:18:25;6.87;;;3.40;;
14778;SDS011;7481;53.750;10.570;2023-04-01T20:26:58;4.70;;;2.90;;
14778;SDS011;7481;53.750;10.570;2023-04-01T20:32:57;6.57;;;2.90;;
14778;SDS011;7481;53.750;10.570;2023-04-01T20:48:12;4.00;;;2.40;;
14778;SDS011;7481;53.750;10.570;2023-04-01T20:51:11;3.97;;;2.30;;
14778;SDS011;7481;53.750;10.570;2023-04-01T20:54:17;6.53;;;2.57;;
14778;SDS011;7481;53.750;10.570;2023-04-01T21:00:07;4.33;;;1.83;;
14778;SDS011;7481;53.750;10.570;2023-04-01T21:08:58;3.40;;;1.70;;
14778;SDS011;7481;53.750;10.570;2023-04-01T21:14:46;2.67;;;1.60;;
14778;SDS011;7481;53.750;10.570;2023-04-01T21:40:55;8.60;;;2.60;;
14778;SDS011;7481;53.750;10.570;2023-04-01T21:44:05;5.27;;;2.20;;
14778;SDS011;7481;53.750;10.570;2023-04-01T21:47:05;3.27;;;2.20;;
14778;SDS011;7481;53.750;10.570;2023-04-01T21:50:14;6.13;;;2.43;;
14778;SDS011;7481;53.750;10.570;2023-04-01T22:05:36;8.07;;;2.20;;
14778;SDS011;7481;53.750;10.570;2023-04-01T22:08:37;8.30;;;1.97;;
14778;SDS011;7481;53.750;10.570;2023-04-01T22:17:28;3.40;;;1.50;;
14778;SDS011;7481;53.750;10.570;2023-04-01T22:20:23;3.17;;;1.87;;
14778;SDS011;7481;53.750;10.570;2023-04-01T22:40:47;5.03;;;1.90;;
14778;SDS011;7481;53.750;10.570;2023-04-01T22:43:41;3.07;;;1.70;;
14778;SDS011;7481;53.750;10.570;2023-04-01T22:46:42;3.90;;;1.70;;
14778;SDS011;7481;53.750;10.570;2023-04-01T22:49:37;6.13;;;1.53;;
14778;SDS011;7481;53.750;10.570;2023-04-01T22:52:36;3.20;;;1.90;;
14778;SDS011;7481;53.750;10.570;2023-04-01T22:55:25;2.80;;;1.53;;
14778;SDS011;7481;53.750;10.570;2023-04-01T22:58:15;2.37;;;1.60;;
14778;SDS011;7481;53.750;10.570;2023-04-01T23:01:05;2.10;;;1.23;;
14778;SDS011;7481;53.750;10.570;2023-04-01T23:03:53;3.80;;;1.73;;
14778;SDS011;7481;53.750;10.570;2023-04-01T23:06:44;2.63;;;1.80;;
14778;SDS011;7481;53.750;10.570;2023-04-01T23:09:33;3.20;;;1.70;;
14778;SDS011;7481;53.750;10.570;2023-04-01T23:12:22;4.40;;;1.60;;
14778;SDS011;7481;53.750;10.570;2023-04-01T23:15:14;4.50;;;1.80;;
14778;SDS011;7481;53.750;10.570;2023-04-01T23:18:08;3.47;;;1.70;;
14778;SDS011;7481;53.750;10.570;2023-04-01T23:24:22;3.40;;;1.73;;
14778;SDS011;7481;53.750;10.570;2023-04-01T23:30:03;4.47;;;1.50;;
14778;SDS011;7481;53.750;10.570;2023-04-01T23:32:51;8.43;;;2.17;;
14778;SDS011;7481;53.750;10.570;2023-04-01T23:35:58;3.30;;;1.50;;
14778;SDS011;7481;53.750;10.570;2023-04-01T23:38:52;3.87;;;1.60;;
14778;SDS011;7481;53.750;10.570;2023-04-01T23:41:40;6.60;;;1.87;;
14778;SDS011;7481;53.750;10.570;2023-04-01T23:44:28;4.40;;;1.60;;
14778;SDS011;7481;53.750;10.570;2023-04-01T23:47:20;3.03;;;1.47;;
14778;SDS011;7481;53.750;10.570;2023-04-01T23:50:16;3.60;;;1.50;;
14778;SDS011;7481;53.750;10.570;2023-04-01T23:53:16;5.93;;;1.80;;
14778;SDS011;7481;53.750;10.570;2023-04-01T23:56:04;5.67;;;1.87;;
14778;SDS011;7481;53.750;10.570;2023-04-01T23:58:52;6.77;;;2.00;;
